Terminal Aerodrome Forecast
Issued by NWS Louisville, KY

Home | Current Version | Previous Version | Text Only | Print | Product List | Glossary On
Versions: 1 2 3 4 5 6 7 8 9 10 11 12 13 14 15
000
FTUS43 KLMK 230200 AAA
TAFBWG
TAF AMD
KBWG 230214Z 2302/2324 15011KT 5SM SHRA BR OVC016
     FM230500 17011KT 5SM BR VCSH OVC015 WS020/20040KT
     FM231100 18006KT 5SM BR VCSH OVC015
     FM231500 14004KT 5SM -SHRA BR OVC012=

USA.gov is the U.S. government's official web portal to all federal, state and local government web resources and services.